Terminal Aerodrome Forecast
Issued by NWS Wilmington, OH

Current Version | Previous Version | Text Only | Print | Product List | Glossary Off
Versions: 1 2 3 4 5 6 7 8 9 10 11 12 13 14 15 16 17 18 19 20 21 22 23 24 25

000
FTUS41 KILN 251500 AAA
TAFCVG
TAF AMD
KCVG 251530Z 2516/2618 25011KT P6SM SCT015 OVC022
     FM251700 22010KT P6SM OVC025
     FM252200 18006KT P6SM SKC
     FM261300 20009KT P6SM SKC=

USA.gov is the U.S. government's official web portal to all federal, state and local government web resources and services.